OSLO / FORNEBU current weather conditions

sailwx.info

Wind from 230 at 22 knots

Air temperature 6.0° C
Visibility: greater than 5.4 NM
Dewpoint 2.0° C

Last reported at 2014-Dec-18 17:50 UTC.
Time now 2014-Dec-18 19:33 UTC

Location: N 59°54' E 010°38'.
View on Google Maps.

See reports from other nearby stations

  
Tides and Currents Weather Stations Pressure Air Temp Water Temp Dewpoint Dewpoint Depression Visibility Wind Speed Wind Dir Waves Ship Positions
date/time (UTC)wind fromknots sea level pressurealtimeterstation pressurevisibilityair tempwater tempwave heightnotes
2014-Dec-18 18:50 240 25 5.4 6.0
2014-Dec-18 18:20 230 25 5.4 6.0
2014-Dec-18 17:50 230 22 5.4 6.0
2014-Dec-18 17:20 240 25 5.4 6.0
2014-Dec-18 16:50 240 18 5.4 5.0 Light rain.
2014-Dec-18 16:20 270 25 5.4 5.0 Light rain.
2014-Dec-18 15:50 230 27 2.7 5.0 Light rain.
2014-Dec-18 15:20 240 20 5.4 7.0
2014-Dec-18 14:50 230 23 5.4 7.0
2014-Dec-18 14:20 230 20 5.4 6.0
2014-Dec-18 13:50 240 24 5.4 6.0
2014-Dec-18 13:20 230 27 5.4 6.0
2014-Dec-18 12:50 240 27 5.4 6.0
2014-Dec-18 12:20 230 24 5.4 6.0
2014-Dec-18 11:50 230 26 5.4 6.0
2014-Dec-18 11:20 230 25 5.4 6.0
2014-Dec-18 10:50 240 26 5.4 6.0
2014-Dec-18 10:20 240 25 5.4 6.0
2014-Dec-18 09:50 240 26 5.4 6.0
2014-Dec-18 09:20 260 20 5.4 5.0
2014-Dec-18 08:50 240 30 5.4 6.0 Light rain showers.
2014-Dec-18 08:20 240 27 5.4 6.0
2014-Dec-18 07:50 260 31 5.4 5.0 Light rain showers.
2014-Dec-18 07:20 230 29 5.4 6.0 Light rain showers.
2014-Dec-18 06:50 250 29 4.9 5.0 Light rain.
2014-Dec-18 06:20 230 31 5.4 7.0
2014-Dec-18 05:50 230 34 5.4 7.0
2014-Dec-18 05:20 220 31 5.4 7.0
2014-Dec-18 04:50 220 30 5.4 6.0 Light rain showers.
2014-Dec-18 04:20 220 27 5.4 7.0
2014-Dec-18 03:50 220 31 5.4 7.0
2014-Dec-18 03:20 220 31 5.4 7.0 Light rain showers.
2014-Dec-18 02:50 220 26 5.4 7.0
2014-Dec-18 02:20 220 31 5.4 7.0 Light rain.
2014-Dec-18 01:50 210 27 5.4 7.0
2014-Dec-18 01:20 210 26 5.4 7.0
2014-Dec-18 00:50 220 26 5.4 7.0
2014-Dec-18 00:20 220 25 5.4 7.0
2014-Dec-17 23:50 220 27 5.4 7.0
2014-Dec-17 23:20 220 27 5.4 7.0
2014-Dec-17 22:50 210 19 5.4 6.0
2014-Dec-17 22:20 210 18 5.4 5.0
2014-Dec-17 21:50 220 24 5.4 5.0 Light rain.
2014-Dec-17 21:20 220 27 5.4 7.0
2014-Dec-17 20:50 220 23 5.4 7.0
2014-Dec-17 20:20 220 19 5.4 6.0
2014-Dec-17 19:50 210 20 5.4 6.0
2014-Dec-17 19:20 260 20 5.4 6.0
2014-Dec-17 18:50 260 20 5.4 8.0
2014-Dec-17 18:20 260 23 5.4 7.0
2014-Dec-17 17:50 250 20 5.4 7.0
2014-Dec-17 17:20 260 24 5.4 7.0
2014-Dec-17 16:50 260 25 5.4 7.0
2014-Dec-17 16:20 260 24 5.4 7.0
2014-Dec-17 15:50 270 26 5.4 7.0
2014-Dec-17 15:20 260 27 5.4 8.0
2014-Dec-17 14:50 260 26 5.4 8.0
2014-Dec-17 14:20 260 26 5.4 8.0
2014-Dec-17 13:50 270 25 5.4 8.0
2014-Dec-17 13:20 270 20 5.4 7.0
2014-Dec-17 12:50 270 22 5.4 7.0 Light rain.
2014-Dec-17 12:20 180 41 2.4 7.0 Light rain. Mist.
2014-Dec-17 11:50 180 40 3.2 7.0 Light rain.
2014-Dec-17 11:20 170 41 2.4 7.0 Light rain. Mist.
2014-Dec-17 10:50 170 40 3.2 7.0 Light rain.
2014-Dec-17 10:20 170 40 5.4 7.0 Light rain showers.
2014-Dec-17 09:50 170 40 5.4 7.0 Light rain.
2014-Dec-17 09:20 170 39 5.4 7.0 Light rain.
2014-Dec-17 08:50 160 40 5.4 7.0 Light rain.
2014-Dec-17 08:20 160 35 5.4 7.0 Light rain showers.
2014-Dec-17 07:50 170 36 5.4 7.0
2014-Dec-17 07:20 170 35 5.4 7.0
2014-Dec-17 06:50 170 31 5.4 7.0
2014-Dec-17 06:20 180 27 5.4 6.0
2014-Dec-17 05:50 170 27 5.4 7.0
2014-Dec-17 05:20 160 26 5.4 6.0
2014-Dec-17 04:50 170 26 5.4 6.0 Light rain showers.
2014-Dec-17 04:20 160 23 5.4 6.0
2014-Dec-17 03:50 170 22 5.4 6.0 Light rain showers.
2014-Dec-17 03:20 160 18 5.4 6.0
2014-Dec-17 02:50 180 15 5.4 6.0
2014-Dec-17 02:20 190 14 5.4 6.0
2014-Dec-17 01:50 5.4 6.0
2014-Dec-17 01:20 220 16 5.4 6.0
2014-Dec-17 00:50 210 10 5.4 6.0
2014-Dec-17 00:20 220 13 5.4 6.0
2014-Dec-16 23:50 230 10 5.4 6.0
2014-Dec-16 23:20 270 10 5.4 6.0
2014-Dec-16 22:50 290 9 5.4 6.0
2014-Dec-16 22:20 290 11 5.4 6.0
2014-Dec-16 21:50 270 16 5.4 6.0
2014-Dec-16 21:20 280 18 5.4 6.0
2014-Dec-16 20:50 290 19 5.4 6.0
2014-Dec-16 20:20 290 23 5.4 6.0
2014-Dec-16 19:50 310 20 5.4 7.0
2014-Dec-16 19:20 310 23 5.4 7.0